Time;durP1;ratioP1;P1;durP2;ratioP2;P2;SDS_P1;SDS_P2;PMS_P1;PMS_P2;Temp;Humidity;BMP_temperature;BMP_pressure;BME280_temperature;BME280_humidity;BME280_pressure;Samples;Min_cycle;Max_cycle;Signal;HPM_P1;HPM_P2
2023/12/01 00:00:05;;;;;;;21.30;12.37;;;;;;;4.95;52.55;99728.72;669137;29;1668;-86
2023/12/01 00:00:26;;;;;;;20.27;11.82;;;;;;;4.93;52.65;99723.50;669321;29;902;-87
2023/12/01 00:00:46;;;;;;;22.83;12.15;;;;;;;4.97;52.98;99734.81;669478;29;1363;-86
2023/12/01 00:01:07;;;;;;;25.73;12.07;;;;;;;4.99;52.67;99738.34;672118;29;1493;-86
2023/12/01 00:01:28;;;;;;;23.90;11.88;;;;;;;4.93;52.93;99734.69;672225;29;1430;-86
2023/12/01 00:01:48;;;;;;;21.48;12.13;;;;;;;4.99;52.83;99733.16;669451;29;1145;-86
2023/12/01 00:02:10;;;;;;;22.83;12.80;;;;;;;5.02;52.67;99748.75;669067;29;1589;-86
2023/12/01 00:02:31;;;;;;;22.23;12.70;;;;;;;4.95;53.04;99726.16;669569;29;1224;-86
2023/12/01 00:02:52;;;;;;;23.20;12.20;;;;;;;4.98;52.98;99734.00;664583;29;1061;-86
2023/12/01 00:03:12;;;;;;;20.53;11.60;;;;;;;4.97;52.86;99735.69;665812;29;1507;-86
2023/12/01 00:03:33;;;;;;;21.73;11.77;;;;;;;5.03;52.98;99750.56;667383;29;1365;-86
2023/12/01 00:03:54;;;;;;;20.85;12.00;;;;;;;4.97;52.63;99740.84;672083;29;1140;-86
2023/12/01 00:04:14;;;;;;;23.45;12.90;;;;;;;5.01;52.60;99742.72;669309;29;1659;-86
2023/12/01 00:04:35;;;;;;;22.60;12.20;;;;;;;5.03;52.59;99750.56;669591;29;757;-86
2023/12/01 00:04:56;;;;;;;22.40;12.02;;;;;;;4.97;53.02;99735.69;672176;29;1058;-86
2023/12/01 00:05:17;;;;;;;19.23;11.43;;;;;;;4.95;52.78;99731.31;669401;29;1515;-86
2023/12/01 00:05:39;;;;;;;20.33;12.02;;;;;;;4.98;52.99;99740.06;672039;29;1341;-87
2023/12/01 00:06:00;;;;;;;20.60;12.02;;;;;;;4.90;52.75;99723.38;672025;29;1323;-86
2023/12/01 00:06:21;;;;;;;24.60;12.32;;;;;;;4.93;52.97;99731.25;669121;29;1109;-86
2023/12/01 00:06:41;;;;;;;22.30;12.30;;;;;;;4.96;52.62;99727.91;669159;29;793;-86
2023/12/01 00:07:03;;;;;;;21.60;12.10;;;;;;;5.01;52.80;99741.84;666515;29;1499;-86
2023/12/01 00:07:23;;;;;;;19.88;11.75;;;;;;;4.96;52.64;99736.50;671923;29;972;-86
2023/12/01 00:07:44;;;;;;;22.10;11.50;;;;;;;5.04;52.88;99752.31;669039;29;1201;-86
2023/12/01 00:08:04;;;;;;;22.02;11.07;;;;;;;4.98;52.94;99734.00;666514;29;1560;-86
2023/12/01 00:08:25;;;;;;;19.95;11.07;;;;;;;4.99;52.88;99733.16;666856;29;1102;-86
2023/12/01 00:08:47;;;;;;;21.15;11.88;;;;;;;4.95;53.14;99728.72;666911;29;1278;-86
2023/12/01 00:09:08;;;;;;;24.83;12.98;;;;;;;4.97;53.08;99729.66;666518;29;1508;-86
2023/12/01 00:09:28;;;;;;;25.83;13.02;;;;;;;4.97;52.91;99734.81;666704;29;1266;-86
2023/12/01 00:09:49;;;;;;;25.45;13.43;;;;;;;4.95;52.65;99733.91;669878;29;790;-86
2023/12/01 00:10:11;;;;;;;23.87;13.03;;;;;;;4.95;52.91;99734.75;667783;29;1508;-85
2023/12/01 00:10:32;;;;;;;20.80;13.10;;;;;;;5.01;52.91;99747.00;666519;29;2004;-86
2023/12/01 00:10:52;;;;;;;21.00;12.40;;;;;;;4.96;52.90;99733.06;671915;29;1415;-86
2023/12/01 00:11:13;;;;;;;21.10;12.40;;;;;;;4.95;52.77;99736.47;673660;29;1502;-86
2023/12/01 00:11:34;;;;;;;21.02;12.20;;;;;;;4.93;52.90;99734.69;674611;29;1322;-87
2023/12/01 00:11:55;;;;;;;24.05;12.20;;;;;;;4.97;52.81;99743.44;672067;29;1410;-86
2023/12/01 00:12:16;;;;;;;26.33;12.90;;;;;;;4.93;52.87;99734.69;666788;29;1595;-85
2023/12/01 00:12:37;;;;;;;28.33;13.02;;;;;;;4.96;52.77;99735.66;667184;29;1270;-86
2023/12/01 00:12:57;;;;;;;25.40;13.57;;;;;;;4.97;52.86;99729.66;672082;29;1258;-86
2023/12/01 00:13:18;;;;;;;23.90;13.73;;;;;;;4.98;53.03;99732.31;671691;29;1573;-86
2023/12/01 00:13:39;;;;;;;22.03;13.40;;;;;;;4.97;53.07;99735.69;669506;29;1190;-86
2023/12/01 00:13:59;;;;;;;22.45;12.88;;;;;;;4.91;53.17;99726.03;672160;29;1405;-86
2023/12/01 00:14:20;;;;;;;23.40;12.30;;;;;;;4.94;53.08;99730.41;671133;29;1501;-87
2023/12/01 00:14:41;;;;;;;22.92;12.48;;;;;;;4.93;52.66;99732.13;667091;29;1260;-86
2023/12/01 00:15:03;;;;;;;20.83;12.57;;;;;;;4.90;52.95;99726.84;671749;29;1615;-86
2023/12/01 00:15:23;;;;;;;20.92;12.73;;;;;;;4.95;52.75;99733.91;669508;29;1256;-86
2023/12/01 00:15:44;;;;;;;21.83;12.57;;;;;;;4.90;53.01;99729.44;672183;29;1034;-86
2023/12/01 00:16:05;;;;;;;19.85;11.55;;;;;;;4.97;52.89;99740.00;665812;29;1534;-86
2023/12/01 00:16:26;;;;;;;20.17;11.52;;;;;;;4.92;52.85;99730.34;666219;29;1540;-87
2023/12/01 00:16:47;;;;;;;21.05;11.32;;;;;;;4.93;52.72;99724.34;668751;29;1224;-87
2023/12/01 00:17:08;;;;;;;24.57;12.70;;;;;;;5.01;52.91;99744.44;668958;29;1783;-86
2023/12/01 00:17:28;;;;;;;22.15;12.63;;;;;;;4.98;53.04;99737.47;669101;29;1197;-86
2023/12/01 00:17:50;;;;;;;20.02;12.90;;;;;;;4.98;52.99;99736.56;669525;29;1250;-86
2023/12/01 00:18:11;;;;;;;23.65;12.27;;;;;;;4.95;52.85;99739.94;669996;29;1598;-86
2023/12/01 00:18:32;;;;;;;24.87;12.57;;;;;;;4.90;52.87;99734.59;672027;29;985;-86
2023/12/01 00:18:52;;;;;;;23.40;11.93;;;;;;;4.91;52.82;99731.19;674147;29;1226;-86
2023/12/01 00:19:13;;;;;;;23.30;11.68;;;;;;;4.97;52.73;99746.03;671201;29;1530;-86
2023/12/01 00:19:35;;;;;;;24.60;12.00;;;;;;;4.92;52.94;99739.84;671611;29;1614;-87
2023/12/01 00:19:55;;;;;;;22.48;12.15;;;;;;;4.96;52.77;99748.59;672496;29;1083;-86
2023/12/01 00:20:16;;;;;;;25.67;12.57;;;;;;;4.90;53.04;99739.78;666834;29;1443;-86
2023/12/01 00:20:37;;;;;;;24.90;11.23;;;;;;;4.89;53.10;99739.72;669401;29;1407;-86
2023/12/01 00:20:58;;;;;;;27.23;12.23;;;;;;;4.91;53.17;99746.69;674167;29;1152;-85
2023/12/01 00:21:19;;;;;;;22.37;12.50;;;;;;;4.87;53.06;99733.63;668947;29;1509;-86
2023/12/01 00:21:39;;;;;;;27.17;14.05;;;;;;;4.89;53.33;99743.19;661819;29;1554;-86
2023/12/01 00:22:00;;;;;;;26.52;13.90;;;;;;;4.86;53.13;99732.75;666929;29;1197;-86
2023/12/01 00:22:21;;;;;;;28.08;13.55;;;;;;;4.91;52.94;99744.13;664302;29;1160;-86
2023/12/01 00:22:42;;;;;;;25.40;13.07;;;;;;;4.96;53.07;99757.19;668983;29;1058;-86
2023/12/01 00:23:02;;;;;;;25.13;12.23;;;;;;;4.84;53.13;99729.22;671537;29;1605;-86
2023/12/01 00:23:23;;;;;;;22.70;12.15;;;;;;;4.88;53.20;99735.38;666908;29;1261;-86
2023/12/01 00:23:44;;;;;;;22.50;11.35;;;;;;;4.89;53.12;99738.03;667009;29;1270;-86
2023/12/01 00:24:05;;;;;;;21.35;11.15;;;;;;;4.92;53.01;99740.69;669566;29;1598;-86
2023/12/01 00:24:26;;;;;;;22.75;11.70;;;;;;;4.93;53.06;99734.69;669264;29;1192;-86
2023/12/01 00:24:47;;;;;;;22.40;11.85;;;;;;;4.93;52.92;99736.41;667061;29;778;-86
2023/12/01 00:25:08;;;;;;;24.27;12.43;;;;;;;4.95;52.81;99741.66;667721;29;1606;-86
2023/12/01 00:25:28;;;;;;;24.33;12.18;;;;;;;4.83;52.70;99727.47;669338;29;1230;-86
2023/12/01 00:25:49;;;;;;;22.15;12.50;;;;;;;4.87;52.90;99741.38;670408;29;1243;-87
2023/12/01 00:26:10;;;;;;;22.67;12.80;;;;;;;4.92;53.13;99753.63;672163;29;1595;-86
2023/12/01 00:26:31;;;;;;;22.85;13.00;;;;;;;4.87;53.38;99734.50;668848;29;1150;-87
2023/12/01 00:26:53;;;;;;;22.42;12.88;;;;;;;4.95;53.27;99741.66;669654;29;1222;-86
2023/12/01 00:27:14;;;;;;;20.87;12.47;;;;;;;4.96;52.87;99743.41;668220;29;1591;-85
2023/12/01 00:27:35;;;;;;;18.33;11.50;;;;;;;4.90;53.04;99734.59;669001;29;1537;-86
2023/12/01 00:27:57;;;;;;;19.40;11.70;;;;;;;4.90;52.87;99744.06;671454;29;1174;-87
2023/12/01 00:28:17;;;;;;;20.88;12.10;;;;;;;4.89;53.22;99742.31;673392;29;1523;-86
2023/12/01 00:28:38;;;;;;;22.47;12.77;;;;;;;4.88;53.16;99740.53;672152;29;777;-86
2023/12/01 00:28:59;;;;;;;20.80;12.27;;;;;;;4.88;53.39;99733.69;670847;29;1197;-86
2023/12/01 00:29:19;;;;;;;21.75;12.15;;;;;;;4.95;53.25;99752.84;671627;29;1590;-86
2023/12/01 00:29:42;;;;;;;22.33;11.70;;;;;;;4.91;53.39;99741.53;672058;29;888;-88
2023/12/01 00:30:03;;;;;;;25.85;12.73;;;;;;;4.97;53.04;99750.34;669167;29;1511;-86
2023/12/01 00:30:28;;;;;;;25.65;12.23;;;;;;;4.83;53.24;99732.63;666919;29;1006;-87
2023/12/01 00:30:49;;;;;;;22.55;12.18;;;;;;;4.84;53.18;99729.22;671538;29;1907;-86
2023/12/01 00:31:10;;;;;;;22.45;12.43;;;;;;;4.83;53.14;99724.88;672791;29;1587;-86
2023/12/01 00:31:31;;;;;;;24.00;12.85;;;;;;;4.84;53.15;99734.38;674512;29;1298;-87
2023/12/01 00:31:51;;;;;;;21.58;12.27;;;;;;;4.88;52.92;99741.44;671337;29;1765;-86
2023/12/01 00:32:12;;;;;;;19.03;11.70;;;;;;;4.86;52.97;99739.63;668885;29;1524;-87
2023/12/01 00:32:33;;;;;;;19.63;12.00;;;;;;;4.88;52.90;99746.59;666793;29;1323;-86
2023/12/01 00:32:53;;;;;;;20.85;12.52;;;;;;;4.91;53.21;99748.44;671726;29;1278;-86
2023/12/01 00:33:14;;;;;;;22.53;12.27;;;;;;;4.89;53.43;99747.47;667439;29;1530;-86
2023/12/01 00:33:34;;;;;;;19.77;11.35;;;;;;;4.86;53.54;99742.22;666005;29;1476;-86
2023/12/01 00:33:55;;;;;;;21.85;11.10;;;;;;;4.83;53.13;99737.81;666794;29;1251;-86
2023/12/01 00:34:16;;;;;;;20.40;11.33;;;;;;;4.84;53.12;99739.56;670887;29;1638;-86
2023/12/01 00:34:36;;;;;;;20.77;11.37;;;;;;;4.91;53.24;99746.69;672028;29;808;-86
2023/12/01 00:34:57;;;;;;;19.63;11.02;;;;;;;4.85;53.18;99738.72;672104;29;1032;-86
2023/12/01 00:35:18;;;;;;;21.08;11.65;;;;;;;4.80;52.95;99732.53;666489;29;1628;-86
2023/12/01 00:35:39;;;;;;;20.65;12.02;;;;;;;4.88;53.36;99745.72;669898;29;1248;-86
2023/12/01 00:36:00;;;;;;;23.75;12.05;;;;;;;4.87;53.23;99744.84;671909;29;1199;-86
2023/12/01 00:36:24;;;;;;;24.00;11.43;;;;;;;4.84;53.14;99742.13;674103;29;1571;-86
2023/12/01 00:36:45;;;;;;;26.70;11.60;;;;;;;4.83;53.39;99737.81;671618;29;844;-86
2023/12/01 00:37:05;;;;;;;26.70;12.05;;;;;;;4.87;52.99;99746.53;668419;29;1503;-86
2023/12/01 00:37:26;;;;;;;23.10;11.17;;;;;;;4.83;53.18;99736.94;671072;29;1170;-86
2023/12/01 00:37:46;;;;;;;23.60;11.70;;;;;;;4.86;53.32;99739.63;671083;29;1633;-86
2023/12/01 00:38:07;;;;;;;20.25;11.82;;;;;;;4.89;53.24;99740.59;669861;29;1475;-86
2023/12/01 00:38:28;;;;;;;19.85;11.68;;;;;;;4.92;52.98;99748.44;674552;29;1203;-86
2023/12/01 00:38:48;;;;;;;17.60;11.03;;;;;;;4.91;53.39;99745.84;673469;29;759;-86
2023/12/01 00:39:10;;;;;;;16.55;10.13;;;;;;;4.89;53.25;99742.31;670816;29;1397;-86
2023/12/01 00:39:31;;;;;;;18.92;10.38;;;;;;;4.88;53.25;99744.03;671807;29;1275;-86
2023/12/01 00:39:52;;;;;;;20.65;10.75;;;;;;;4.93;52.96;99755.38;669115;29;1440;-86
2023/12/01 00:40:13;;;;;;;20.48;10.70;;;;;;;4.87;53.25;99739.69;666726;29;1568;-87
2023/12/01 00:40:33;;;;;;;22.15;11.25;;;;;;;4.92;53.17;99750.19;666708;29;1203;-87
2023/12/01 00:40:54;;;;;;;26.33;11.07;;;;;;;4.89;53.16;99743.19;664435;29;1100;-86
2023/12/01 00:41:15;;;;;;;25.00;11.10;;;;;;;4.93;53.49;99755.38;666563;29;1578;-86
2023/12/01 00:41:35;;;;;;;20.88;10.68;;;;;;;4.91;53.12;99743.25;669535;29;809;-86
2023/12/01 00:41:56;;;;;;;16.00;10.90;;;;;;;4.98;53.18;99762.44;666828;29;1491;-86
2023/12/01 00:42:18;;;;;;;17.38;10.65;;;;;;;4.93;53.05;99750.22;673775;29;1506;-86
2023/12/01 00:42:38;;;;;;;18.53;10.77;;;;;;;4.99;53.16;99753.84;674556;29;1237;-86
2023/12/01 00:43:01;;;;;;;19.73;10.95;;;;;;;4.96;53.18;99743.41;673608;29;1502;-86
2023/12/01 00:43:21;;;;;;;20.52;11.02;;;;;;;5.01;53.17;99759.94;671689;29;1504;-86
2023/12/01 00:43:42;;;;;;;23.80;11.50;;;;;;;5.01;52.86;99754.78;668517;29;804;-86
2023/12/01 00:44:03;;;;;;;22.67;10.95;;;;;;;4.96;53.24;99753.75;668575;29;1633;-86
2023/12/01 00:44:24;;;;;;;22.27;11.10;;;;;;;4.98;53.02;99749.50;671808;29;1484;-86
2023/12/01 00:44:48;;;;;;;20.50;11.40;;;;;;;4.98;53.20;99758.16;666927;29;1221;-85
2023/12/01 00:45:09;;;;;;;20.30;12.10;;;;;;;4.99;53.08;99759.00;669934;29;1429;-86
2023/12/01 00:45:29;;;;;;;19.88;11.65;;;;;;;4.93;53.21;99755.38;669332;29;1080;-86
2023/12/01 00:45:50;;;;;;;21.38;11.60;;;;;;;4.99;53.32;99756.44;666940;29;1274;-86
2023/12/01 00:46:11;;;;;;;21.65;11.55;;;;;;;5.00;53.36;99758.19;670297;29;1455;-86
2023/12/01 00:46:31;;;;;;;20.13;11.63;;;;;;;4.90;53.19;99744.94;672017;29;1348;-87
2023/12/01 00:46:52;;;;;;;18.15;10.88;;;;;;;4.90;53.27;99750.13;672004;29;1206;-86
2023/12/01 00:47:13;;;;;;;17.60;10.27;;;;;;;4.89;53.46;99748.38;672450;29;1462;-86
2023/12/01 00:47:33;;;;;;;17.52;9.93;;;;;;;4.87;53.00;99752.59;671917;29;1263;-86
2023/12/01 00:47:55;;;;;;;17.10;10.10;;;;;;;4.90;53.02;99755.28;667078;29;1271;-85
2023/12/01 00:48:15;;;;;;;17.17;10.70;;;;;;;4.89;53.32;99756.13;672336;29;1455;-86
2023/12/01 00:48:36;;;;;;;18.17;11.10;;;;;;;4.98;52.97;99773.66;669269;29;1152;-87
2023/12/01 00:48:56;;;;;;;18.20;11.33;;;;;;;4.83;53.52;99752.44;669439;29;1177;-86
2023/12/01 00:49:17;;;;;;;18.15;10.90;;;;;;;4.84;53.03;99754.22;671299;29;1460;-87
2023/12/01 00:49:38;;;;;;;18.23;11.00;;;;;;;4.86;53.40;99763.78;671789;29;1230;-86
2023/12/01 00:49:58;;;;;;;19.93;11.07;;;;;;;4.84;53.48;99749.91;674547;29;1031;-86
2023/12/01 00:50:19;;;;;;;20.48;11.10;;;;;;;4.83;53.45;99753.31;669506;29;1480;-86
2023/12/01 00:50:40;;;;;;;21.52;10.98;;;;;;;4.88;53.40;99758.63;669442;29;1969;-85
2023/12/01 00:51:02;;;;;;;20.40;10.30;;;;;;;4.87;53.27;99762.06;669233;29;1217;-86
2023/12/01 00:51:23;;;;;;;21.05;10.73;;;;;;;4.88;53.55;99766.41;671845;29;1248;-86
2023/12/01 00:51:45;;;;;;;22.67;10.90;;;;;;;4.77;53.39;99753.09;666710;29;1432;-86
2023/12/01 00:52:05;;;;;;;19.85;10.90;;;;;;;4.79;53.46;99754.06;674072;29;1467;-86
2023/12/01 00:52:26;;;;;;;20.52;10.48;;;;;;;4.84;53.27;99761.97;669354;29;1154;-86
2023/12/01 00:52:47;;;;;;;17.87;9.90;;;;;;;4.88;53.33;99767.28;671412;29;1368;-86
2023/12/01 00:53:08;;;;;;;16.20;9.40;;;;;;;4.90;53.62;99770.81;672904;29;1532;-86
2023/12/01 00:53:29;;;;;;;16.10;10.07;;;;;;;4.85;53.21;99764.56;675505;29;1313;-86
2023/12/01 00:53:50;;;;;;;17.52;10.38;;;;;;;4.84;53.29;99762.81;674473;29;1199;-86
2023/12/01 00:54:11;;;;;;;19.52;10.50;;;;;;;4.76;53.25;99752.22;675245;29;1470;-86
2023/12/01 00:54:32;;;;;;;18.33;10.07;;;;;;;4.79;53.20;99751.47;670604;29;1168;-86
2023/12/01 00:54:53;;;;;;;18.05;10.55;;;;;;;4.80;53.32;99758.38;674636;29;1056;-86
2023/12/01 00:55:14;;;;;;;18.02;10.80;;;;;;;4.82;53.47;99764.47;668320;29;1531;-86
2023/12/01 00:55:35;;;;;;;17.60;10.23;;;;;;;4.80;53.70;99758.38;669401;29;1200;-86
2023/12/01 00:55:56;;;;;;;17.75;9.70;;;;;;;4.78;53.33;99754.84;672060;29;1137;-87
2023/12/01 00:56:17;;;;;;;16.02;9.00;;;;;;;4.80;53.18;99763.56;669692;29;1435;-85
2023/12/01 00:56:37;;;;;;;15.65;9.02;;;;;;;4.86;53.30;99771.53;667132;29;1112;-86
2023/12/01 00:56:58;;;;;;;18.35;9.10;;;;;;;4.77;53.41;99755.69;668875;29;1409;-86
2023/12/01 00:57:19;;;;;;;19.15;9.60;;;;;;;4.88;53.14;99776.75;673776;29;1589;-86
2023/12/01 00:57:40;;;;;;;20.30;9.77;;;;;;;4.77;53.26;99756.56;674135;29;1173;-87
2023/12/01 00:58:01;;;;;;;16.57;9.60;;;;;;;4.79;53.57;99764.38;674682;29;1067;-86
2023/12/01 00:58:22;;;;;;;15.88;9.82;;;;;;;4.75;53.41;99762.50;670331;29;1555;-85
2023/12/01 00:58:43;;;;;;;21.88;10.77;;;;;;;4.72;53.37;99758.09;677176;29;824;-86
2023/12/01 00:59:03;;;;;;;23.92;11.50;;;;;;;4.75;53.22;99765.09;673145;29;1624;-86
2023/12/01 00:59:24;;;;;;;23.52;11.60;;;;;;;4.72;53.11;99759.81;671709;29;1216;-87
2023/12/01 00:59:46;;;;;;;19.17;10.82;;;;;;;4.76;53.67;99767.75;674560;29;1227;-86
2023/12/01 01:00:07;;;;;;;18.30;9.73;;;;;;;4.77;53.31;99768.59;667210;29;1770;-86
2023/12/01 01:00:28;;;;;;;18.46;9.46;;;;;;;4.79;53.72;99774.72;669191;29;985;-86
2023/12/01 01:00:49;;;;;;;14.70;9.43;;;;;;;4.75;53.58;99771.16;669453;29;1298;-86
2023/12/01 01:01:09;;;;;;;16.37;10.20;;;;;;;4.72;53.36;99765.84;671021;29;1479;-86
2023/12/01 01:01:30;;;;;;;17.80;10.05;;;;;;;4.79;53.69;99767.84;666681;29;1163;-86
2023/12/01 01:01:51;;;;;;;26.70;10.23;;;;;;;4.78;53.40;99773.84;669299;29;1244;-86
2023/12/01 01:02:11;;;;;;;28.52;10.43;;;;;;;4.75;53.29;99770.25;668452;29;1577;-86
2023/12/01 01:02:33;;;;;;;20.80;10.30;;;;;;;4.73;53.26;99771.91;669268;29;1335;-85
2023/12/01 01:02:54;;;;;;;18.50;9.25;;;;;;;4.75;53.47;99771.16;667066;29;1723;-86
2023/12/01 01:03:15;;;;;;;16.70;9.05;;;;;;;4.71;53.49;99761.50;669056;29;1540;-86
2023/12/01 01:03:36;;;;;;;15.52;8.88;;;;;;;4.65;53.22;99759.59;674534;29;1220;-86
2023/12/01 01:03:57;;;;;;;16.42;9.30;;;;;;;4.66;53.26;99760.47;671896;29;1295;-86
2023/12/01 01:04:18;;;;;;;16.20;9.15;;;;;;;4.70;53.59;99770.09;668987;29;1556;-86
2023/12/01 01:04:39;;;;;;;17.25;9.57;;;;;;;4.68;53.47;99771.75;672000;29;1148;-86
2023/12/01 01:05:00;;;;;;;13.48;9.27;;;;;;;4.68;53.85;99768.28;674495;29;1071;-86
2023/12/01 01:05:21;;;;;;;13.82;9.20;;;;;;;4.73;53.58;99788.28;671761;29;1466;-86
2023/12/01 01:05:42;;;;;;;13.85;9.30;;;;;;;4.67;53.74;99776.84;671946;29;1556;-86
2023/12/01 01:06:04;;;;;;;14.77;9.38;;;;;;;4.61;53.54;99762.88;669118;29;1586;-86
2023/12/01 01:06:24;;;;;;;16.08;9.85;;;;;;;4.64;53.71;99770.75;672577;29;964;-86
2023/12/01 01:06:45;;;;;;;18.48;9.98;;;;;;;4.68;53.55;99781.19;672004;29;805;-86
2023/12/01 01:07:06;;;;;;;19.47;10.33;;;;;;;4.60;53.60;99771.47;670990;29;1554;-86
2023/12/01 01:07:26;;;;;;;17.20;9.15;;;;;;;4.63;53.43;99769.00;669513;29;1163;-86
2023/12/01 01:07:47;;;;;;;15.32;9.10;;;;;;;4.68;53.73;99779.50;669431;29;1142;-86
2023/12/01 01:08:08;;;;;;;19.93;9.30;;;;;;;4.61;53.73;99775.81;669440;29;1512;-86
2023/12/01 01:08:32;;;;;;;22.80;10.43;;;;;;;4.71;53.63;99784.78;674441;29;1292;-86
2023/12/01 01:08:53;;;;;;;24.10;10.60;;;;;;;4.69;53.59;99785.53;670113;29;1363;-86
2023/12/01 01:09:13;;;;;;;18.43;10.07;;;;;;;4.69;53.51;99788.13;670292;29;1613;-86
2023/12/01 01:09:34;;;;;;;19.85;10.30;;;;;;;4.60;53.54;99776.63;675840;29;1142;-86
2023/12/01 01:09:55;;;;;;;19.70;9.70;;;;;;;4.57;53.83;99765.31;674441;29;1229;-87
2023/12/01 01:10:15;;;;;;;19.17;9.43;;;;;;;4.61;53.83;99777.53;671598;29;1497;-86
2023/12/01 01:10:36;;;;;;;16.02;8.90;;;;;;;4.65;53.41;99776.78;674385;29;1923;-86
2023/12/01 01:10:57;;;;;;;16.42;9.05;;;;;;;4.64;53.62;99777.63;671958;29;1082;-86
2023/12/01 01:11:17;;;;;;;17.92;9.13;;;;;;;4.67;53.43;99789.78;671387;29;1529;-86
2023/12/01 01:11:38;;;;;;;18.60;8.53;;;;;;;4.62;53.42;99776.69;669473;29;1204;-86
2023/12/01 01:12:00;;;;;;;17.05;8.68;;;;;;;4.62;53.73;99774.13;671919;29;1196;-86
2023/12/01 01:12:21;;;;;;;17.15;9.38;;;;;;;4.61;53.75;99772.34;671153;29;1487;-86
2023/12/01 01:12:41;;;;;;;18.83;10.65;;;;;;;4.58;53.68;99764.47;674319;29;1141;-86
2023/12/01 01:13:02;;;;;;;19.80;10.93;;;;;;;4.62;53.82;99775.00;669362;29;1387;-85
2023/12/01 01:13:26;;;;;;;18.75;10.23;;;;;;;4.69;53.37;99780.38;669130;29;1518;-86
2023/12/01 01:13:46;;;;;;;17.00;9.75;;;;;;;4.63;54.00;99774.19;666915;29;1647;-86
2023/12/01 01:14:07;;;;;;;15.33;9.90;;;;;;;4.71;53.74;99783.91;664664;29;1579;-87
2023/12/01 01:14:28;;;;;;;17.10;10.40;;;;;;;4.71;53.98;99783.91;666839;29;1012;-86
2023/12/01 01:14:49;;;;;;;15.95;9.98;;;;;;;4.70;53.61;99776.97;669504;29;1293;-87
2023/12/01 01:15:10;;;;;;;15.50;9.43;;;;;;;4.75;53.87;99786.66;672136;29;1598;-86
2023/12/01 01:15:30;;;;;;;14.65;9.05;;;;;;;4.70;53.70;99774.38;671856;29;988;-86
2023/12/01 01:15:51;;;;;;;15.68;9.00;;;;;;;4.71;53.31;99774.44;673243;29;1445;-87
2023/12/01 01:16:12;;;;;;;17.48;9.10;;;;;;;4.70;53.46;99769.19;667559;29;1477;-86
2023/12/01 01:16:33;;;;;;;19.40;9.90;;;;;;;4.77;53.47;99789.28;676227;29;1396;-86
2023/12/01 01:16:53;;;;;;;19.33;10.10;;;;;;;4.74;53.51;99777.16;672149;29;1626;-86
2023/12/01 01:17:14;;;;;;;18.52;9.60;;;;;;;4.74;53.40;99773.66;667652;29;1617;-86
2023/12/01 01:17:35;;;;;;;15.73;9.05;;;;;;;4.78;53.86;99776.41;674138;29;1177;-86
2023/12/01 01:17:55;;;;;;;14.13;8.63;;;;;;;4.79;53.32;99782.47;669163;29;1356;-86
2023/12/01 01:18:16;;;;;;;12.50;9.02;;;;;;;4.83;53.48;99791.22;669050;29;1460;-86
2023/12/01 01:18:38;;;;;;;13.98;9.10;;;;;;;4.77;53.46;99789.28;670193;29;772;-86
2023/12/01 01:18:59;;;;;;;16.65;9.88;;;;;;;4.82;53.61;99794.59;671960;29;1489;-86
2023/12/01 01:19:19;;;;;;;17.63;10.30;;;;;;;4.73;53.14;99775.38;667564;29;1453;-86
2023/12/01 01:19:40;;;;;;;17.70;10.50;;;;;;;4.75;53.55;99781.50;664355;29;1478;-86
2023/12/01 01:20:01;;;;;;;18.33;10.77;;;;;;;4.88;53.10;99800.91;671802;29;1187;-86
2023/12/01 01:20:21;;;;;;;18.95;10.38;;;;;;;4.83;53.34;99789.50;673898;29;1374;-86
2023/12/01 01:20:42;;;;;;;17.70;9.98;;;;;;;4.78;53.52;99783.28;674616;29;1265;-86
2023/12/01 01:21:03;;;;;;;14.80;9.50;;;;;;;4.80;53.49;99792.00;669747;29;1212;-87
2023/12/01 01:21:24;;;;;;;15.38;9.88;;;;;;;4.80;53.48;99786.81;671684;29;1460;-86
2023/12/01 01:21:44;;;;;;;19.73;9.90;;;;;;;4.86;53.48;99793.91;666716;29;1606;-86
2023/12/01 01:22:05;;;;;;;21.47;9.90;;;;;;;4.79;53.22;99788.50;664488;29;1477;-86
2023/12/01 01:22:26;;;;;;;21.27;9.70;;;;;;;4.89;53.40;99792.31;669335;29;1300;-86
2023/12/01 01:22:47;;;;;;;15.98;9.20;;;;;;;4.76;52.94;99772.00;672472;29;1222;-86
2023/12/01 01:23:07;;;;;;;18.45;9.23;;;;;;;4.79;53.34;99788.50;675130;29;1626;-86
2023/12/01 01:23:29;;;;;;;18.65;9.60;;;;;;;4.76;53.37;99779.75;671241;29;1575;-86
2023/12/01 01:23:50;;;;;;;18.95;10.18;;;;;;;4.76;53.32;99787.53;669861;29;1463;-86
2023/12/01 01:24:11;;;;;;;18.10;9.90;;;;;;;4.73;53.06;99782.25;670648;29;1478;-86
2023/12/01 01:24:31;;;;;;;17.73;9.83;;;;;;;4.74;53.40;99784.91;672106;29;1716;-87
2023/12/01 01:24:52;;;;;;;19.27;10.10;;;;;;;4.77;53.23;99794.44;672295;29;1098;-86
2023/12/01 01:25:13;;;;;;;18.30;10.60;;;;;;;4.71;53.46;99783.91;669651;29;1586;-86
2023/12/01 01:25:34;;;;;;;18.17;10.20;;;;;;;4.78;53.55;99799.69;672219;29;1192;-86
2023/12/01 01:25:54;;;;;;;18.00;10.25;;;;;;;4.72;53.32;99785.66;669825;29;1195;-86
2023/12/01 01:26:15;;;;;;;18.87;10.23;;;;;;;4.74;53.75;99791.75;673350;29;1479;-86
2023/12/01 01:26:36;;;;;;;22.42;10.60;;;;;;;4.74;53.55;99784.00;671958;29;1255;-86
2023/12/01 01:26:57;;;;;;;20.70;10.15;;;;;;;4.72;53.31;99775.34;677243;29;1251;-86
2023/12/01 01:27:19;;;;;;;20.58;10.10;;;;;;;4.74;53.64;99781.44;671779;29;1738;-86
2023/12/01 01:27:39;;;;;;;20.27;10.55;;;;;;;4.73;53.43;99788.28;664722;29;1424;-86
2023/12/01 01:28:00;;;;;;;19.33;10.38;;;;;;;4.83;53.45;99794.69;669723;29;1270;-86
2023/12/01 01:28:21;;;;;;;18.27;10.23;;;;;;;4.75;53.23;99786.66;671585;29;1499;-86
2023/12/01 01:28:41;;;;;;;14.60;9.53;;;;;;;4.71;53.51;99778.75;675055;29;850;-86
2023/12/01 01:29:02;;;;;;;17.30;9.80;;;;;;;4.79;53.37;99795.41;674714;29;1406;-86
2023/12/01 01:29:23;;;;;;;17.98;9.48;;;;;;;4.79;53.42;99798.00;667107;29;1577;-86
2023/12/01 01:29:45;;;;;;;17.05;8.77;;;;;;;4.71;53.35;99792.53;669929;29;1219;-86
2023/12/01 01:30:07;;;;;;;17.83;8.85;;;;;;;4.73;53.26;99792.59;666973;29;1545;-86
2023/12/01 01:30:29;;;;;;;19.10;8.57;;;;;;;4.71;53.39;99789.94;672394;29;983;-86
2023/12/01 01:30:50;;;;;;;22.08;9.52;;;;;;;4.70;53.46;99790.78;673799;29;1958;-86
2023/12/01 01:31:11;;;;;;;20.40;9.27;;;;;;;4.74;53.57;99784.00;675998;29;1509;-86
2023/12/01 01:31:31;;;;;;;18.42;9.35;;;;;;;4.69;53.56;99781.25;675129;29;1176;-86
2023/12/01 01:31:52;;;;;;;15.23;8.65;;;;;;;4.77;53.41;99800.50;672372;29;1226;-86
2023/12/01 01:32:12;;;;;;;14.43;8.60;;;;;;;4.71;53.47;99786.50;672706;29;1549;-86
2023/12/01 01:32:33;;;;;;;13.13;8.23;;;;;;;4.65;53.31;99779.38;667238;29;1178;-87
2023/12/01 01:32:55;;;;;;;13.13;8.40;;;;;;;4.69;53.60;99801.03;669719;29;1439;-86
2023/12/01 01:33:15;;;;;;;14.75;9.25;;;;;;;4.70;53.79;99802.81;671893;29;1538;-87
2023/12/01 01:33:36;;;;;;;17.00;9.33;;;;;;;4.67;53.43;99788.09;672443;29;1148;-86
2023/12/01 01:33:57;;;;;;;17.75;9.70;;;;;;;4.64;53.35;99785.38;668461;29;1248;-86
2023/12/01 01:34:18;;;;;;;15.15;9.27;;;;;;;4.63;53.37;99784.50;669532;29;1526;-87
2023/12/01 01:34:39;;;;;;;14.13;9.00;;;;;;;4.58;53.38;99775.69;669803;29;1283;-86
2023/12/01 01:35:00;;;;;;;13.25;9.18;;;;;;;4.54;53.37;99791.03;669797;29;1395;-85
2023/12/01 01:35:21;;;;;;;12.95;9.18;;;;;;;4.55;53.57;99793.69;671273;29;1569;-86
2023/12/01 01:35:42;;;;;;;14.23;9.40;;;;;;;4.54;53.33;99802.25;669659;29;1315;-85
2023/12/01 01:36:04;;;;;;;14.93;9.07;;;;;;;4.52;53.61;99793.56;667135;29;1260;-87
2023/12/01 01:36:24;;;;;;;15.52;9.63;;;;;;;4.56;53.73;99794.56;672544;29;1295;-86
2023/12/01 01:36:45;;;;;;;15.13;9.50;;;;;;;4.52;53.49;99788.41;677202;29;1162;-86
2023/12/01 01:37:09;;;;;;;17.77;10.15;;;;;;;4.55;53.44;99793.69;674397;29;1471;-86
2023/12/01 01:37:29;;;;;;;18.75;10.18;;;;;;;4.55;53.34;99791.13;679667;29;1275;-86
2023/12/01 01:37:50;;;;;;;19.70;10.80;;;;;;;4.56;53.80;99800.63;676236;29;1222;-86
2023/12/01 01:38:11;;;;;;;17.60;10.75;;;;;;;4.62;53.74;99799.97;675693;29;1475;-86
2023/12/01 01:38:32;;;;;;;19.47;10.97;;;;;;;4.59;53.54;99789.53;669690;29;1273;-86
2023/12/01 01:38:53;;;;;;;20.27;11.02;;;;;;;4.62;53.49;99800.84;669642;29;1341;-86
2023/12/01 01:39:14;;;;;;;18.95;10.63;;;;;;;4.56;53.60;99800.63;671107;29;1475;-86
2023/12/01 01:39:34;;;;;;;16.20;10.30;;;;;;;4.62;53.63;99811.19;669813;29;1280;-85
2023/12/01 01:39:55;;;;;;;16.48;9.65;;;;;;;4.60;53.40;99799.88;669694;29;1183;-86